sensor_id;sensor_type;location;lat;lon;timestamp;P1;durP1;ratioP1;P2;durP2;ratioP2
22764;SDS011;11549;50.852;3.816;2022-12-10T00:01:46;114.40;;;41.53;;
22764;SDS011;11549;50.852;3.816;2022-12-10T00:04:17;115.70;;;42.50;;
22764;SDS011;11549;50.852;3.816;2022-12-10T00:06:46;120.13;;;42.15;;
22764;SDS011;11549;50.852;3.816;2022-12-10T00:09:15;109.88;;;41.35;;
22764;SDS011;11549;50.852;3.816;2022-12-10T00:11:44;107.85;;;41.58;;
22764;SDS011;11549;50.852;3.816;2022-12-10T00:14:13;104.72;;;41.47;;
22764;SDS011;11549;50.852;3.816;2022-12-10T00:16:42;110.97;;;42.55;;
22764;SDS011;11549;50.852;3.816;2022-12-10T00:19:11;122.38;;;41.88;;
22764;SDS011;11549;50.852;3.816;2022-12-10T00:21:41;122.45;;;43.42;;
22764;SDS011;11549;50.852;3.816;2022-12-10T00:24:11;125.22;;;43.58;;
22764;SDS011;11549;50.852;3.816;2022-12-10T00:26:40;131.77;;;43.75;;
22764;SDS011;11549;50.852;3.816;2022-12-10T00:29:10;136.57;;;42.13;;
22764;SDS011;11549;50.852;3.816;2022-12-10T00:31:39;148.48;;;44.42;;
22764;SDS011;11549;50.852;3.816;2022-12-10T00:34:08;131.95;;;43.22;;
22764;SDS011;11549;50.852;3.816;2022-12-10T00:36:39;144.02;;;45.55;;
22764;SDS011;11549;50.852;3.816;2022-12-10T00:39:11;135.02;;;43.72;;
22764;SDS011;11549;50.852;3.816;2022-12-10T00:41:41;143.02;;;44.03;;
22764;SDS011;11549;50.852;3.816;2022-12-10T00:44:09;160.57;;;46.25;;
22764;SDS011;11549;50.852;3.816;2022-12-10T00:46:38;219.90;;;47.70;;
22764;SDS011;11549;50.852;3.816;2022-12-10T00:49:06;145.27;;;45.40;;
22764;SDS011;11549;50.852;3.816;2022-12-10T00:51:35;238.07;;;50.10;;
22764;SDS011;11549;50.852;3.816;2022-12-10T00:54:05;186.32;;;46.60;;
22764;SDS011;11549;50.852;3.816;2022-12-10T00:56:33;216.20;;;48.50;;
22764;SDS011;11549;50.852;3.816;2022-12-10T00:59:02;207.85;;;48.92;;
22764;SDS011;11549;50.852;3.816;2022-12-10T01:01:31;152.85;;;46.38;;
22764;SDS011;11549;50.852;3.816;2022-12-10T01:04:02;207.93;;;49.60;;
22764;SDS011;11549;50.852;3.816;2022-12-10T01:06:32;219.73;;;48.15;;
22764;SDS011;11549;50.852;3.816;2022-12-10T01:09:03;256.73;;;48.10;;
22764;SDS011;11549;50.852;3.816;2022-12-10T01:11:35;172.30;;;46.20;;
22764;SDS011;11549;50.852;3.816;2022-12-10T01:14:05;186.65;;;45.92;;
22764;SDS011;11549;50.852;3.816;2022-12-10T01:16:35;142.05;;;46.17;;
22764;SDS011;11549;50.852;3.816;2022-12-10T01:19:04;192.95;;;48.00;;
22764;SDS011;11549;50.852;3.816;2022-12-10T01:21:32;195.52;;;49.35;;
22764;SDS011;11549;50.852;3.816;2022-12-10T01:24:01;137.32;;;46.67;;
22764;SDS011;11549;50.852;3.816;2022-12-10T01:26:33;175.95;;;48.13;;
22764;SDS011;11549;50.852;3.816;2022-12-10T01:29:03;192.88;;;50.20;;
22764;SDS011;11549;50.852;3.816;2022-12-10T01:31:32;217.48;;;50.58;;
22764;SDS011;11549;50.852;3.816;2022-12-10T01:34:02;158.73;;;47.53;;
22764;SDS011;11549;50.852;3.816;2022-12-10T01:36:32;140.27;;;45.42;;
22764;SDS011;11549;50.852;3.816;2022-12-10T01:39:03;157.50;;;47.30;;
22764;SDS011;11549;50.852;3.816;2022-12-10T01:41:34;168.52;;;47.92;;
22764;SDS011;11549;50.852;3.816;2022-12-10T01:44:53;163.77;;;47.20;;
22764;SDS011;11549;50.852;3.816;2022-12-10T01:47:11;145.95;;;45.95;;
22764;SDS011;11549;50.852;3.816;2022-12-10T01:49:40;139.35;;;45.35;;
22764;SDS011;11549;50.852;3.816;2022-12-10T01:52:09;158.38;;;46.10;;
22764;SDS011;11549;50.852;3.816;2022-12-10T01:54:39;144.35;;;45.65;;
22764;SDS011;11549;50.852;3.816;2022-12-10T01:57:10;147.55;;;45.38;;
22764;SDS011;11549;50.852;3.816;2022-12-10T01:59:43;155.40;;;44.58;;
22764;SDS011;11549;50.852;3.816;2022-12-10T02:02:16;123.63;;;43.30;;
22764;SDS011;11549;50.852;3.816;2022-12-10T02:04:54;151.52;;;45.33;;
22764;SDS011;11549;50.852;3.816;2022-12-10T02:07:36;146.75;;;45.45;;
22764;SDS011;11549;50.852;3.816;2022-12-10T02:10:15;139.43;;;44.53;;
22764;SDS011;11549;50.852;3.816;2022-12-10T02:12:53;133.00;;;43.60;;
22764;SDS011;11549;50.852;3.816;2022-12-10T02:15:29;129.23;;;44.58;;
22764;SDS011;11549;50.852;3.816;2022-12-10T02:18:03;165.85;;;43.67;;
22764;SDS011;11549;50.852;3.816;2022-12-10T02:20:35;164.50;;;46.15;;
22764;SDS011;11549;50.852;3.816;2022-12-10T02:23:07;131.40;;;43.50;;
22764;SDS011;11549;50.852;3.816;2022-12-10T02:25:39;200.57;;;47.33;;
22764;SDS011;11549;50.852;3.816;2022-12-10T02:28:17;168.80;;;44.33;;
22764;SDS011;11549;50.852;3.816;2022-12-10T02:30:52;159.40;;;44.25;;
22764;SDS011;11549;50.852;3.816;2022-12-10T02:33:23;161.80;;;44.40;;
22764;SDS011;11549;50.852;3.816;2022-12-10T02:35:54;143.98;;;43.35;;
22764;SDS011;11549;50.852;3.816;2022-12-10T02:38:26;126.68;;;41.30;;
22764;SDS011;11549;50.852;3.816;2022-12-10T02:40:58;155.60;;;42.30;;
22764;SDS011;11549;50.852;3.816;2022-12-10T02:43:30;147.20;;;42.97;;
22764;SDS011;11549;50.852;3.816;2022-12-10T02:46:02;132.80;;;41.03;;
22764;SDS011;11549;50.852;3.816;2022-12-10T02:48:32;144.38;;;41.33;;
22764;SDS011;11549;50.852;3.816;2022-12-10T02:51:01;139.75;;;40.65;;
22764;SDS011;11549;50.852;3.816;2022-12-10T02:53:29;150.10;;;40.15;;
22764;SDS011;11549;50.852;3.816;2022-12-10T02:56:03;315.98;;;44.95;;
22764;SDS011;11549;50.852;3.816;2022-12-10T02:58:40;351.88;;;46.35;;
22764;SDS011;11549;50.852;3.816;2022-12-10T03:01:19;138.05;;;37.38;;
22764;SDS011;11549;50.852;3.816;2022-12-10T03:03:55;176.52;;;40.88;;
22764;SDS011;11549;50.852;3.816;2022-12-10T03:06:27;345.02;;;44.20;;
22764;SDS011;11549;50.852;3.816;2022-12-10T03:09:04;143.90;;;36.35;;
22764;SDS011;11549;50.852;3.816;2022-12-10T03:11:35;160.23;;;37.70;;
22764;SDS011;11549;50.852;3.816;2022-12-10T03:14:08;117.43;;;38.50;;
22764;SDS011;11549;50.852;3.816;2022-12-10T03:19:14;208.40;;;40.45;;
22764;SDS011;11549;50.852;3.816;2022-12-10T03:21:44;122.72;;;38.55;;
22764;SDS011;11549;50.852;3.816;2022-12-10T03:24:15;211.85;;;40.88;;
22764;SDS011;11549;50.852;3.816;2022-12-10T03:26:45;387.38;;;48.00;;
22764;SDS011;11549;50.852;3.816;2022-12-10T03:29:17;170.68;;;39.28;;
22764;SDS011;11549;50.852;3.816;2022-12-10T03:31:51;140.75;;;38.88;;
22764;SDS011;11549;50.852;3.816;2022-12-10T03:34:21;139.82;;;35.30;;
22764;SDS011;11549;50.852;3.816;2022-12-10T03:36:50;122.47;;;35.65;;
22764;SDS011;11549;50.852;3.816;2022-12-10T03:39:19;93.00;;;32.90;;
22764;SDS011;11549;50.852;3.816;2022-12-10T03:41:48;160.30;;;34.70;;
22764;SDS011;11549;50.852;3.816;2022-12-10T03:44:26;130.02;;;31.98;;
22764;SDS011;11549;50.852;3.816;2022-12-10T03:46:56;160.73;;;34.05;;
22764;SDS011;11549;50.852;3.816;2022-12-10T03:49:25;130.27;;;34.63;;
22764;SDS011;11549;50.852;3.816;2022-12-10T03:51:54;292.42;;;40.17;;
22764;SDS011;11549;50.852;3.816;2022-12-10T03:54:22;349.85;;;40.78;;
22764;SDS011;11549;50.852;3.816;2022-12-10T03:56:50;197.45;;;35.22;;
22764;SDS011;11549;50.852;3.816;2022-12-10T03:59:19;313.88;;;40.88;;
22764;SDS011;11549;50.852;3.816;2022-12-10T04:01:47;179.35;;;37.20;;
22764;SDS011;11549;50.852;3.816;2022-12-10T04:04:17;87.90;;;30.70;;
22764;SDS011;11549;50.852;3.816;2022-12-10T04:06:46;244.40;;;39.35;;
22764;SDS011;11549;50.852;3.816;2022-12-10T04:09:15;94.88;;;32.35;;
22764;SDS011;11549;50.852;3.816;2022-12-10T04:11:43;126.03;;;32.63;;
22764;SDS011;11549;50.852;3.816;2022-12-10T04:14:12;128.38;;;33.08;;
22764;SDS011;11549;50.852;3.816;2022-12-10T04:16:59;121.22;;;31.95;;
22764;SDS011;11549;50.852;3.816;2022-12-10T04:19:29;150.02;;;33.85;;
22764;SDS011;11549;50.852;3.816;2022-12-10T04:21:57;161.60;;;31.15;;
22764;SDS011;11549;50.852;3.816;2022-12-10T04:24:43;182.20;;;29.63;;
22764;SDS011;11549;50.852;3.816;2022-12-10T04:27:29;176.45;;;31.02;;
22764;SDS011;11549;50.852;3.816;2022-12-10T04:30:00;164.98;;;29.63;;
22764;SDS011;11549;50.852;3.816;2022-12-10T04:32:29;151.40;;;30.75;;
22764;SDS011;11549;50.852;3.816;2022-12-10T04:34:59;87.38;;;28.45;;
22764;SDS011;11549;50.852;3.816;2022-12-10T04:37:28;123.57;;;29.50;;
22764;SDS011;11549;50.852;3.816;2022-12-10T04:39:56;131.32;;;29.17;;
22764;SDS011;11549;50.852;3.816;2022-12-10T04:42:24;96.45;;;27.65;;
22764;SDS011;11549;50.852;3.816;2022-12-10T04:44:53;224.77;;;32.33;;
22764;SDS011;11549;50.852;3.816;2022-12-10T04:47:21;162.13;;;29.27;;
22764;SDS011;11549;50.852;3.816;2022-12-10T04:49:50;75.32;;;25.58;;
22764;SDS011;11549;50.852;3.816;2022-12-10T04:52:20;177.55;;;31.52;;
22764;SDS011;11549;50.852;3.816;2022-12-10T04:54:48;105.07;;;27.73;;
22764;SDS011;11549;50.852;3.816;2022-12-10T04:57:16;221.10;;;31.10;;
22764;SDS011;11549;50.852;3.816;2022-12-10T04:59:45;216.40;;;31.30;;
22764;SDS011;11549;50.852;3.816;2022-12-10T05:02:13;210.23;;;31.27;;
22764;SDS011;11549;50.852;3.816;2022-12-10T05:04:42;129.35;;;29.42;;
22764;SDS011;11549;50.852;3.816;2022-12-10T05:07:10;155.88;;;28.85;;
22764;SDS011;11549;50.852;3.816;2022-12-10T05:09:40;113.20;;;27.17;;
22764;SDS011;11549;50.852;3.816;2022-12-10T05:12:09;136.77;;;27.70;;
22764;SDS011;11549;50.852;3.816;2022-12-10T05:14:37;98.18;;;25.88;;
22764;SDS011;11549;50.852;3.816;2022-12-10T05:17:06;78.38;;;26.38;;
22764;SDS011;11549;50.852;3.816;2022-12-10T05:19:34;95.00;;;26.33;;
22764;SDS011;11549;50.852;3.816;2022-12-10T05:22:03;108.57;;;26.95;;
22764;SDS011;11549;50.852;3.816;2022-12-10T05:24:50;144.07;;;29.00;;
22764;SDS011;11549;50.852;3.816;2022-12-10T05:27:19;125.93;;;27.98;;
22764;SDS011;11549;50.852;3.816;2022-12-10T05:29:47;234.35;;;32.90;;
22764;SDS011;11549;50.852;3.816;2022-12-10T05:32:15;144.27;;;27.77;;
22764;SDS011;11549;50.852;3.816;2022-12-10T05:34:44;115.70;;;26.90;;
22764;SDS011;11549;50.852;3.816;2022-12-10T05:37:12;164.45;;;27.90;;
22764;SDS011;11549;50.852;3.816;2022-12-10T05:39:40;145.88;;;26.88;;
22764;SDS011;11549;50.852;3.816;2022-12-10T05:42:10;154.77;;;28.70;;
22764;SDS011;11549;50.852;3.816;2022-12-10T05:44:38;85.93;;;25.83;;
22764;SDS011;11549;50.852;3.816;2022-12-10T05:47:06;176.98;;;28.67;;
22764;SDS011;11549;50.852;3.816;2022-12-10T05:49:35;119.47;;;28.52;;
22764;SDS011;11549;50.852;3.816;2022-12-10T05:52:03;100.90;;;25.45;;
22764;SDS011;11549;50.852;3.816;2022-12-10T05:54:32;71.18;;;25.55;;
22764;SDS011;11549;50.852;3.816;2022-12-10T05:57:00;120.80;;;30.58;;
22764;SDS011;11549;50.852;3.816;2022-12-10T05:59:30;86.30;;;28.52;;
22764;SDS011;11549;50.852;3.816;2022-12-10T06:01:58;150.07;;;29.23;;
22764;SDS011;11549;50.852;3.816;2022-12-10T06:04:27;82.95;;;25.63;;
22764;SDS011;11549;50.852;3.816;2022-12-10T06:06:55;122.10;;;28.95;;
22764;SDS011;11549;50.852;3.816;2022-12-10T06:09:23;116.95;;;29.17;;
22764;SDS011;11549;50.852;3.816;2022-12-10T06:11:52;73.07;;;25.83;;
22764;SDS011;11549;50.852;3.816;2022-12-10T06:14:20;90.85;;;27.45;;
22764;SDS011;11549;50.852;3.816;2022-12-10T06:16:50;136.55;;;27.27;;
22764;SDS011;11549;50.852;3.816;2022-12-10T06:19:18;89.80;;;26.27;;
22764;SDS011;11549;50.852;3.816;2022-12-10T06:21:47;124.00;;;31.02;;
22764;SDS011;11549;50.852;3.816;2022-12-10T06:24:15;81.75;;;28.75;;
22764;SDS011;11549;50.852;3.816;2022-12-10T06:26:44;155.35;;;29.30;;
22764;SDS011;11549;50.852;3.816;2022-12-10T06:29:12;92.10;;;26.20;;
22764;SDS011;11549;50.852;3.816;2022-12-10T06:31:40;95.65;;;26.42;;
22764;SDS011;11549;50.852;3.816;2022-12-10T06:34:10;119.38;;;26.40;;
22764;SDS011;11549;50.852;3.816;2022-12-10T06:36:38;114.40;;;26.92;;
22764;SDS011;11549;50.852;3.816;2022-12-10T06:39:07;98.20;;;26.30;;
22764;SDS011;11549;50.852;3.816;2022-12-10T06:41:35;75.88;;;24.73;;
22764;SDS011;11549;50.852;3.816;2022-12-10T06:44:06;122.72;;;28.42;;
22764;SDS011;11549;50.852;3.816;2022-12-10T06:46:34;145.13;;;27.73;;
22764;SDS011;11549;50.852;3.816;2022-12-10T06:49:03;85.75;;;26.30;;
22764;SDS011;11549;50.852;3.816;2022-12-10T06:51:33;74.30;;;25.92;;
22764;SDS011;11549;50.852;3.816;2022-12-10T06:54:02;113.90;;;26.35;;
22764;SDS011;11549;50.852;3.816;2022-12-10T06:56:31;124.35;;;27.48;;
22764;SDS011;11549;50.852;3.816;2022-12-10T06:58:59;199.15;;;29.67;;
22764;SDS011;11549;50.852;3.816;2022-12-10T07:01:31;104.05;;;27.63;;
22764;SDS011;11549;50.852;3.816;2022-12-10T07:03:59;71.70;;;23.42;;
22764;SDS011;11549;50.852;3.816;2022-12-10T07:06:28;93.50;;;25.63;;
22764;SDS011;11549;50.852;3.816;2022-12-10T07:09:00;121.75;;;28.20;;
22764;SDS011;11549;50.852;3.816;2022-12-10T07:11:29;82.20;;;25.08;;
22764;SDS011;11549;50.852;3.816;2022-12-10T07:13:58;92.32;;;26.23;;
22764;SDS011;11549;50.852;3.816;2022-12-10T07:16:27;69.47;;;24.13;;
22764;SDS011;11549;50.852;3.816;2022-12-10T07:18:58;127.75;;;26.77;;
22764;SDS011;11549;50.852;3.816;2022-12-10T07:21:28;86.13;;;24.15;;
22764;SDS011;11549;50.852;3.816;2022-12-10T07:24:00;114.05;;;26.25;;
22764;SDS011;11549;50.852;3.816;2022-12-10T07:26:31;154.75;;;29.33;;
22764;SDS011;11549;50.852;3.816;2022-12-10T07:29:02;68.00;;;25.15;;
22764;SDS011;11549;50.852;3.816;2022-12-10T07:31:31;82.35;;;23.77;;
22764;SDS011;11549;50.852;3.816;2022-12-10T07:34:00;89.75;;;24.98;;
22764;SDS011;11549;50.852;3.816;2022-12-10T07:36:28;95.30;;;25.35;;
22764;SDS011;11549;50.852;3.816;2022-12-10T07:38:57;88.07;;;25.48;;
22764;SDS011;11549;50.852;3.816;2022-12-10T07:41:27;114.45;;;27.02;;
22764;SDS011;11549;50.852;3.816;2022-12-10T07:43:56;113.97;;;26.70;;
22764;SDS011;11549;50.852;3.816;2022-12-10T07:46:25;199.35;;;30.13;;
22764;SDS011;11549;50.852;3.816;2022-12-10T07:48:55;189.48;;;29.85;;
22764;SDS011;11549;50.852;3.816;2022-12-10T07:51:23;85.13;;;24.67;;
22764;SDS011;11549;50.852;3.816;2022-12-10T07:53:52;215.77;;;30.65;;
22764;SDS011;11549;50.852;3.816;2022-12-10T07:56:21;130.00;;;25.65;;
22764;SDS011;11549;50.852;3.816;2022-12-10T07:58:52;162.80;;;27.92;;
22764;SDS011;11549;50.852;3.816;2022-12-10T08:01:21;156.07;;;31.63;;
22764;SDS011;11549;50.852;3.816;2022-12-10T08:03:52;124.38;;;32.33;;
22764;SDS011;11549;50.852;3.816;2022-12-10T08:06:24;177.38;;;28.83;;
22764;SDS011;11549;50.852;3.816;2022-12-10T08:08:53;142.00;;;28.08;;
22764;SDS011;11549;50.852;3.816;2022-12-10T08:11:22;107.53;;;24.83;;
22764;SDS011;11549;50.852;3.816;2022-12-10T08:13:51;84.47;;;23.55;;
22764;SDS011;11549;50.852;3.816;2022-12-10T08:16:23;150.07;;;24.53;;
22764;SDS011;11549;50.852;3.816;2022-12-10T08:18:53;91.35;;;24.95;;
22764;SDS011;11549;50.852;3.816;2022-12-10T08:21:23;73.05;;;23.45;;
22764;SDS011;11549;50.852;3.816;2022-12-10T08:23:52;137.27;;;27.08;;
22764;SDS011;11549;50.852;3.816;2022-12-10T08:26:22;92.55;;;26.15;;
22764;SDS011;11549;50.852;3.816;2022-12-10T08:28:53;84.75;;;24.95;;
22764;SDS011;11549;50.852;3.816;2022-12-10T08:31:23;131.45;;;27.45;;
22764;SDS011;11549;50.852;3.816;2022-12-10T08:33:52;100.75;;;27.23;;
22764;SDS011;11549;50.852;3.816;2022-12-10T08:36:21;199.80;;;29.30;;
22764;SDS011;11549;50.852;3.816;2022-12-10T08:38:49;115.20;;;26.38;;
22764;SDS011;11549;50.852;3.816;2022-12-10T08:41:19;143.60;;;26.92;;
22764;SDS011;11549;50.852;3.816;2022-12-10T08:43:50;91.13;;;24.80;;
22764;SDS011;11549;50.852;3.816;2022-12-10T08:46:21;74.63;;;24.95;;
22764;SDS011;11549;50.852;3.816;2022-12-10T08:48:51;84.50;;;24.77;;
22764;SDS011;11549;50.852;3.816;2022-12-10T08:51:20;175.23;;;29.00;;
22764;SDS011;11549;50.852;3.816;2022-12-10T08:53:49;84.97;;;25.65;;
22764;SDS011;11549;50.852;3.816;2022-12-10T08:56:17;85.43;;;25.83;;
22764;SDS011;11549;50.852;3.816;2022-12-10T08:58:45;85.60;;;25.30;;
22764;SDS011;11549;50.852;3.816;2022-12-10T09:01:16;88.82;;;25.75;;
22764;SDS011;11549;50.852;3.816;2022-12-10T09:03:46;119.18;;;27.85;;
22764;SDS011;11549;50.852;3.816;2022-12-10T09:06:15;167.18;;;31.02;;
22764;SDS011;11549;50.852;3.816;2022-12-10T09:08:45;105.10;;;27.73;;
22764;SDS011;11549;50.852;3.816;2022-12-10T09:11:15;113.80;;;25.42;;
22764;SDS011;11549;50.852;3.816;2022-12-10T09:13:45;113.22;;;24.65;;
22764;SDS011;11549;50.852;3.816;2022-12-10T09:16:13;73.22;;;24.20;;
22764;SDS011;11549;50.852;3.816;2022-12-10T09:18:43;137.98;;;28.13;;
22764;SDS011;11549;50.852;3.816;2022-12-10T09:21:13;188.52;;;33.63;;
22764;SDS011;11549;50.852;3.816;2022-12-10T09:23:42;184.45;;;36.65;;
22764;SDS011;11549;50.852;3.816;2022-12-10T09:26:12;119.88;;;29.15;;
22764;SDS011;11549;50.852;3.816;2022-12-10T09:28:43;123.32;;;27.42;;
22764;SDS011;11549;50.852;3.816;2022-12-10T09:31:12;121.70;;;28.08;;
22764;SDS011;11549;50.852;3.816;2022-12-10T09:33:48;102.80;;;30.10;;
22764;SDS011;11549;50.852;3.816;2022-12-10T09:36:18;191.95;;;29.98;;
22764;SDS011;11549;50.852;3.816;2022-12-10T09:38:48;79.90;;;28.02;;
22764;SDS011;11549;50.852;3.816;2022-12-10T09:41:27;128.60;;;28.98;;
22764;SDS011;11549;50.852;3.816;2022-12-10T09:44:17;91.00;;;26.63;;
22764;SDS011;11549;50.852;3.816;2022-12-10T09:46:55;151.15;;;29.27;;
22764;SDS011;11549;50.852;3.816;2022-12-10T09:49:30;122.10;;;27.70;;
22764;SDS011;11549;50.852;3.816;2022-12-10T09:52:10;85.85;;;25.98;;
22764;SDS011;11549;50.852;3.816;2022-12-10T09:54:40;94.63;;;26.02;;
22764;SDS011;11549;50.852;3.816;2022-12-10T09:57:18;189.13;;;32.53;;
22764;SDS011;11549;50.852;3.816;2022-12-10T09:59:50;131.05;;;25.48;;
22764;SDS011;11549;50.852;3.816;2022-12-10T10:02:20;151.18;;;28.13;;
22764;SDS011;11549;50.852;3.816;2022-12-10T10:04:52;106.47;;;25.70;;
22764;SDS011;11549;50.852;3.816;2022-12-10T10:07:24;104.30;;;26.63;;
22764;SDS011;11549;50.852;3.816;2022-12-10T10:09:55;139.20;;;27.48;;
22764;SDS011;11549;50.852;3.816;2022-12-10T10:12:29;109.13;;;28.13;;
22764;SDS011;11549;50.852;3.816;2022-12-10T10:14:59;161.13;;;29.45;;
22764;SDS011;11549;50.852;3.816;2022-12-10T10:17:39;106.75;;;25.95;;
22764;SDS011;11549;50.852;3.816;2022-12-10T10:20:13;156.82;;;28.15;;
22764;SDS011;11549;50.852;3.816;2022-12-10T10:22:42;170.05;;;28.05;;
22764;SDS011;11549;50.852;3.816;2022-12-10T10:25:12;98.07;;;25.73;;
22764;SDS011;11549;50.852;3.816;2022-12-10T10:27:42;122.25;;;29.23;;
22764;SDS011;11549;50.852;3.816;2022-12-10T10:30:13;80.13;;;27.23;;
22764;SDS011;11549;50.852;3.816;2022-12-10T10:32:45;134.93;;;29.33;;
22764;SDS011;11549;50.852;3.816;2022-12-10T10:35:23;113.88;;;34.42;;
22764;SDS011;11549;50.852;3.816;2022-12-10T10:37:56;99.88;;;28.02;;
22764;SDS011;11549;50.852;3.816;2022-12-10T10:40:27;143.25;;;28.10;;
22764;SDS011;11549;50.852;3.816;2022-12-10T10:42:59;120.43;;;27.47;;
22764;SDS011;11549;50.852;3.816;2022-12-10T10:45:31;98.65;;;28.25;;
22764;SDS011;11549;50.852;3.816;2022-12-10T10:48:08;101.40;;;28.45;;
22764;SDS011;11549;50.852;3.816;2022-12-10T10:50:42;104.90;;;27.70;;
22764;SDS011;11549;50.852;3.816;2022-12-10T10:53:28;98.50;;;27.50;;
22764;SDS011;11549;50.852;3.816;2022-12-10T10:56:00;92.78;;;27.33;;
22764;SDS011;11549;50.852;3.816;2022-12-10T10:58:34;127.85;;;33.70;;
22764;SDS011;11549;50.852;3.816;2022-12-10T11:01:04;116.95;;;30.17;;
22764;SDS011;11549;50.852;3.816;2022-12-10T11:03:35;120.55;;;32.42;;
22764;SDS011;11549;50.852;3.816;2022-12-10T11:06:06;131.57;;;30.70;;
22764;SDS011;11549;50.852;3.816;2022-12-10T11:08:37;82.88;;;29.38;;
22764;SDS011;11549;50.852;3.816;2022-12-10T11:11:10;78.18;;;26.13;;
22764;SDS011;11549;50.852;3.816;2022-12-10T11:13:40;97.90;;;28.63;;
22764;SDS011;11549;50.852;3.816;2022-12-10T11:16:10;80.65;;;26.95;;
22764;SDS011;11549;50.852;3.816;2022-12-10T11:18:41;79.50;;;26.33;;
22764;SDS011;11549;50.852;3.816;2022-12-10T11:21:18;83.20;;;26.48;;
22764;SDS011;11549;50.852;3.816;2022-12-10T11:23:48;91.60;;;27.42;;
22764;SDS011;11549;50.852;3.816;2022-12-10T11:29:28;97.90;;;24.77;;
22764;SDS011;11549;50.852;3.816;2022-12-10T11:32:20;77.90;;;25.55;;
22764;SDS011;11549;50.852;3.816;2022-12-10T11:34:59;79.65;;;25.05;;
22764;SDS011;11549;50.852;3.816;2022-12-10T11:37:36;85.70;;;24.58;;
22764;SDS011;11549;50.852;3.816;2022-12-10T11:43:00;78.60;;;23.70;;
22764;SDS011;11549;50.852;3.816;2022-12-10T11:45:51;87.57;;;27.17;;
22764;SDS011;11549;50.852;3.816;2022-12-10T11:48:31;87.65;;;25.65;;
22764;SDS011;11549;50.852;3.816;2022-12-10T11:51:09;79.70;;;26.27;;
22764;SDS011;11549;50.852;3.816;2022-12-10T11:53:49;83.18;;;27.00;;
22764;SDS011;11549;50.852;3.816;2022-12-10T11:56:26;101.32;;;34.10;;
22764;SDS011;11549;50.852;3.816;2022-12-10T11:59:01;77.13;;;25.17;;
22764;SDS011;11549;50.852;3.816;2022-12-10T12:01:46;110.50;;;28.15;;
22764;SDS011;11549;50.852;3.816;2022-12-10T12:04:32;84.40;;;26.92;;
22764;SDS011;11549;50.852;3.816;2022-12-10T12:07:25;81.43;;;26.88;;
22764;SDS011;11549;50.852;3.816;2022-12-10T12:10:16;75.97;;;27.52;;
22764;SDS011;11549;50.852;3.816;2022-12-10T12:13:20;81.15;;;26.60;;
22764;SDS011;11549;50.852;3.816;2022-12-10T12:15:53;81.60;;;27.33;;
22764;SDS011;11549;50.852;3.816;2022-12-10T12:18:26;85.47;;;27.75;;
22764;SDS011;11549;50.852;3.816;2022-12-10T12:21:01;85.95;;;25.83;;
22764;SDS011;11549;50.852;3.816;2022-12-10T12:23:33;92.05;;;26.02;;
22764;SDS011;11549;50.852;3.816;2022-12-10T12:26:13;82.10;;;25.95;;
22764;SDS011;11549;50.852;3.816;2022-12-10T12:28:45;80.40;;;26.83;;
22764;SDS011;11549;50.852;3.816;2022-12-10T12:31:18;81.20;;;26.63;;
22764;SDS011;11549;50.852;3.816;2022-12-10T12:33:50;77.13;;;25.20;;
22764;SDS011;11549;50.852;3.816;2022-12-10T12:36:24;80.13;;;26.63;;
22764;SDS011;11549;50.852;3.816;2022-12-10T12:38:56;80.17;;;26.10;;
22764;SDS011;11549;50.852;3.816;2022-12-10T12:41:32;82.22;;;27.35;;
22764;SDS011;11549;50.852;3.816;2022-12-10T12:44:08;82.90;;;28.75;;
22764;SDS011;11549;50.852;3.816;2022-12-10T12:46:40;81.82;;;27.98;;
22764;SDS011;11549;50.852;3.816;2022-12-10T12:49:14;82.60;;;27.05;;
22764;SDS011;11549;50.852;3.816;2022-12-10T12:51:48;81.93;;;25.73;;
22764;SDS011;11549;50.852;3.816;2022-12-10T12:54:21;84.32;;;26.80;;
22764;SDS011;11549;50.852;3.816;2022-12-10T12:56:59;79.20;;;27.13;;
22764;SDS011;11549;50.852;3.816;2022-12-10T12:59:39;77.80;;;25.88;;
22764;SDS011;11549;50.852;3.816;2022-12-10T13:02:20;76.68;;;25.55;;
22764;SDS011;11549;50.852;3.816;2022-12-10T13:04:55;76.18;;;25.90;;
22764;SDS011;11549;50.852;3.816;2022-12-10T13:07:30;83.88;;;26.13;;
22764;SDS011;11549;50.852;3.816;2022-12-10T13:13:06;86.00;;;33.50;;
22764;SDS011;11549;50.852;3.816;2022-12-10T13:15:49;87.63;;;32.15;;
22764;SDS011;11549;50.852;3.816;2022-12-10T13:18:20;90.97;;;35.78;;
22764;SDS011;11549;50.852;3.816;2022-12-10T13:20:51;83.38;;;29.60;;
22764;SDS011;11549;50.852;3.816;2022-12-10T13:23:54;84.63;;;28.40;;
22764;SDS011;11549;50.852;3.816;2022-12-10T13:26:34;87.72;;;28.58;;
22764;SDS011;11549;50.852;3.816;2022-12-10T13:29:23;90.40;;;30.27;;
22764;SDS011;11549;50.852;3.816;2022-12-10T13:31:57;85.32;;;29.92;;
22764;SDS011;11549;50.852;3.816;2022-12-10T13:34:34;84.75;;;28.38;;
22764;SDS011;11549;50.852;3.816;2022-12-10T13:37:14;86.57;;;32.20;;
22764;SDS011;11549;50.852;3.816;2022-12-10T13:39:50;90.65;;;31.70;;
22764;SDS011;11549;50.852;3.816;2022-12-10T13:42:28;85.35;;;29.67;;
22764;SDS011;11549;50.852;3.816;2022-12-10T13:45:31;81.82;;;29.77;;
22764;SDS011;11549;50.852;3.816;2022-12-10T13:48:18;82.13;;;28.50;;
22764;SDS011;11549;50.852;3.816;2022-12-10T13:51:04;80.47;;;29.10;;
22764;SDS011;11549;50.852;3.816;2022-12-10T13:53:48;81.95;;;29.17;;
22764;SDS011;11549;50.852;3.816;2022-12-10T13:59:05;83.20;;;28.80;;
22764;SDS011;11549;50.852;3.816;2022-12-10T14:04:19;83.95;;;27.35;;
22764;SDS011;11549;50.852;3.816;2022-12-10T14:07:17;73.50;;;27.52;;
22764;SDS011;11549;50.852;3.816;2022-12-10T14:09:48;77.68;;;29.40;;
22764;SDS011;11549;50.852;3.816;2022-12-10T14:12:20;82.22;;;30.80;;
22764;SDS011;11549;50.852;3.816;2022-12-10T14:14:54;82.05;;;29.83;;
22764;SDS011;11549;50.852;3.816;2022-12-10T14:17:30;85.75;;;31.20;;
22764;SDS011;11549;50.852;3.816;2022-12-10T14:20:02;89.20;;;35.28;;
22764;SDS011;11549;50.852;3.816;2022-12-10T14:22:37;86.43;;;37.45;;
22764;SDS011;11549;50.852;3.816;2022-12-10T14:25:10;85.13;;;31.08;;
22764;SDS011;11549;50.852;3.816;2022-12-10T14:27:41;84.43;;;30.98;;
22764;SDS011;11549;50.852;3.816;2022-12-10T14:30:15;76.70;;;30.52;;
22764;SDS011;11549;50.852;3.816;2022-12-10T14:32:46;79.22;;;30.48;;
22764;SDS011;11549;50.852;3.816;2022-12-10T14:35:15;79.18;;;29.63;;
22764;SDS011;11549;50.852;3.816;2022-12-10T14:37:51;78.10;;;28.60;;
22764;SDS011;11549;50.852;3.816;2022-12-10T14:40:23;81.60;;;29.17;;
22764;SDS011;11549;50.852;3.816;2022-12-10T14:42:59;88.20;;;30.73;;
22764;SDS011;11549;50.852;3.816;2022-12-10T14:45:33;86.10;;;32.53;;
22764;SDS011;11549;50.852;3.816;2022-12-10T14:48:12;82.07;;;33.17;;
22764;SDS011;11549;50.852;3.816;2022-12-10T14:50:42;78.40;;;31.35;;
22764;SDS011;11549;50.852;3.816;2022-12-10T14:53:13;75.00;;;28.55;;
22764;SDS011;11549;50.852;3.816;2022-12-10T14:55:46;75.38;;;28.50;;
22764;SDS011;11549;50.852;3.816;2022-12-10T14:58:25;75.97;;;31.00;;
22764;SDS011;11549;50.852;3.816;2022-12-10T15:01:09;79.32;;;29.55;;